createdAt,value
2022-10-21T00:00:24.741Z,975.89
2022-10-21T00:00:53.990Z,975.89
2022-10-21T00:01:25.530Z,976.19
2022-10-21T00:01:55.981Z,975.79
2022-10-21T00:02:27.206Z,975.79
2022-10-21T00:02:58.253Z,975.99
2022-10-21T00:03:46.507Z,975.99
2022-10-21T00:04:02.350Z,975.99
2022-10-21T00:04:33.283Z,975.99
2022-10-21T00:05:03.678Z,975.89
2022-10-21T00:05:33.302Z,975.89
2022-10-21T00:06:05.063Z,975.99
2022-10-21T00:06:35.153Z,975.99
2022-10-21T00:07:06.293Z,975.89
2022-10-21T00:07:38.422Z,975.89
2022-10-21T00:08:08.356Z,975.99
2022-10-21T00:09:23.199Z,975.99
2022-10-21T00:09:45.385Z,975.99
2022-10-21T00:10:12.158Z,975.99
2022-10-21T00:11:01.212Z,975.99
2022-10-21T00:11:16.990Z,975.99
2022-10-21T00:11:47.019Z,975.99
2022-10-21T00:12:18.039Z,975.89
2022-10-21T00:12:47.861Z,975.89
2022-10-21T00:13:18.634Z,975.89
2022-10-21T00:13:56.860Z,975.89
2022-10-21T00:14:23.593Z,975.89
2022-10-21T00:14:54.911Z,975.89
2022-10-21T00:15:26.799Z,975.68
2022-10-21T00:15:54.124Z,975.68
2022-10-21T00:16:24.757Z,975.89
2022-10-21T00:17:02.165Z,975.89
2022-10-21T00:17:28.227Z,975.68
2022-10-21T00:17:58.056Z,975.89
2022-10-21T00:18:28.590Z,975.89
2022-10-21T00:19:01.695Z,975.68
2022-10-21T00:20:01.866Z,975.68
2022-10-21T00:20:34.770Z,975.68
2022-10-21T00:21:03.621Z,975.89
2022-10-21T00:21:51.308Z,975.89
2022-10-21T00:22:06.938Z,975.68
2022-10-21T00:22:38.862Z,975.68
2022-10-21T00:23:08.947Z,975.79
2022-10-21T00:24:10.783Z,975.89
2022-10-21T00:24:40.169Z,975.89
2022-10-21T00:25:18.538Z,975.89
2022-10-21T00:25:42.734Z,975.89
2022-10-21T00:26:13.131Z,975.68
2022-10-21T00:26:45.460Z,975.68
2022-10-21T00:27:17.895Z,975.79
2022-10-21T00:27:47.865Z,975.79
2022-10-21T00:28:21.173Z,975.89
2022-10-21T00:28:48.582Z,975.89
2022-10-21T00:29:53.193Z,975.68
2022-10-21T00:30:41.991Z,975.68
2022-10-21T00:30:52.271Z,975.68
2022-10-21T00:31:56.840Z,975.89
2022-10-21T00:32:26.894Z,975.68
2022-10-21T00:33:02.196Z,975.79
2022-10-21T00:33:32.848Z,975.79
2022-10-21T00:34:07.531Z,975.68
2022-10-21T00:34:49.978Z,975.68
2022-10-21T00:35:01.747Z,975.68
2022-10-21T00:35:48.454Z,975.68
2022-10-21T00:36:04.182Z,975.79
2022-10-21T00:36:39.301Z,975.79
2022-10-21T00:37:07.156Z,975.68
2022-10-21T00:37:38.379Z,975.68
2022-10-21T00:38:09.008Z,975.58
2022-10-21T00:38:49.261Z,975.58
2022-10-21T00:39:09.705Z,975.68
2022-10-21T00:39:39.626Z,975.68
2022-10-21T00:40:13.079Z,975.79
2022-10-21T00:40:42.230Z,975.79
2022-10-21T00:41:12.824Z,975.68
2022-10-21T00:41:43.779Z,975.68
2022-10-21T00:42:14.905Z,975.58
2022-10-21T00:42:48.632Z,975.58
2022-10-21T00:43:19.031Z,975.58
2022-10-21T00:43:49.255Z,975.58
2022-10-21T00:44:20.287Z,975.58
2022-10-21T00:44:50.300Z,975.58
2022-10-21T00:45:25.851Z,975.58
2022-10-21T00:45:52.185Z,975.58
2022-10-21T00:46:59.644Z,975.52
2022-10-21T00:47:25.329Z,975.68
2022-10-21T00:47:56.167Z,975.68
2022-10-21T00:48:29.175Z,975.52
2022-10-21T00:48:59.518Z,975.52
2022-10-21T00:49:29.996Z,975.52
2022-10-21T00:50:00.374Z,975.68
2022-10-21T00:50:31.044Z,975.68
2022-10-21T00:51:04.948Z,975.58
2022-10-21T00:51:32.767Z,975.58
2022-10-21T00:52:04.231Z,975.52
2022-10-21T00:52:35.250Z,975.52
2022-10-21T00:53:06.841Z,975.79
2022-10-21T00:53:39.230Z,975.79
2022-10-21T00:54:09.385Z,975.41
2022-10-21T00:54:39.513Z,975.41
2022-10-21T00:55:16.596Z,975.52
2022-10-21T00:55:40.783Z,975.52
2022-10-21T00:56:16.261Z,975.52
2022-10-21T00:56:42.877Z,975.52
2022-10-21T00:57:13.919Z,975.41
2022-10-21T00:57:46.933Z,975.41
2022-10-21T00:58:17.377Z,975.52
2022-10-21T00:58:49.434Z,975.52
2022-10-21T00:59:19.700Z,975.41
2022-10-21T00:59:49.929Z,975.41
2022-10-21T01:00:24.311Z,975.21
2022-10-21T01:00:52.183Z,975.21
2022-10-21T01:01:22.347Z,975.58
2022-10-21T01:01:55.469Z,975.58
2022-10-21T01:02:24.274Z,975.52
2022-10-21T01:02:55.763Z,975.52
2022-10-21T01:03:25.845Z,975.41
2022-10-21T01:03:59.436Z,975.31
2022-10-21T01:04:47.244Z,975.31
2022-10-21T01:05:14.626Z,975.41
2022-10-21T01:05:38.528Z,975.41
2022-10-21T01:06:01.565Z,975.41
2022-10-21T01:06:49.601Z,975.41
2022-10-21T01:07:03.362Z,975.41
2022-10-21T01:07:36.453Z,975.41
2022-10-21T01:08:04.936Z,975.41
2022-10-21T01:08:35.910Z,975.41
2022-10-21T01:09:13.897Z,975.31
2022-10-21T01:09:39.070Z,975.31
2022-10-21T01:10:10.564Z,975.21
2022-10-21T01:10:41.915Z,975.21
2022-10-21T01:11:48.957Z,975.31
2022-10-21T01:12:13.155Z,975.21
2022-10-21T01:12:43.502Z,975.21
2022-10-21T01:13:19.370Z,975.21
2022-10-21T01:13:48.721Z,975.21
2022-10-21T01:14:29.348Z,975.31
2022-10-21T01:14:50.857Z,975.31
2022-10-21T01:15:22.461Z,975.58
2022-10-21T01:15:51.333Z,975.58
2022-10-21T01:16:20.744Z,975.41
2022-10-21T01:16:51.647Z,975.41
2022-10-21T01:17:40.294Z,975.31
2022-10-21T01:17:53.494Z,975.31
2022-10-21T01:18:24.633Z,975.31
2022-10-21T01:18:55.403Z,975.31
2022-10-21T01:20:31.325Z,975.52
2022-10-21T01:21:01.109Z,975.11
2022-10-21T01:21:30.725Z,975.11
2022-10-21T01:22:01.841Z,975.41
2022-10-21T01:22:59.574Z,975.41
2022-10-21T01:23:11.037Z,975.21
2022-10-21T01:23:34.175Z,975.21
2022-10-21T01:24:36.235Z,975.41
2022-10-21T01:25:10.189Z,975.41
2022-10-21T01:25:39.582Z,975.41
2022-10-21T01:26:11.462Z,975.31
2022-10-21T01:26:40.593Z,975.31
2022-10-21T01:27:11.880Z,975.52
2022-10-21T01:27:42.511Z,975.52
2022-10-21T01:28:13.652Z,975.11
2022-10-21T01:28:44.342Z,975.11
2022-10-21T01:29:15.457Z,975.41
2022-10-21T01:29:52.597Z,975.41
2022-10-21T01:30:20.842Z,975.01
2022-10-21T01:30:49.857Z,975.01
2022-10-21T01:31:20.712Z,975.31
2022-10-21T01:31:50.586Z,975.31
2022-10-21T01:32:22.387Z,975.31
2022-10-21T01:32:53.332Z,975.31
2022-10-21T01:33:24.469Z,975.31
2022-10-21T01:33:54.314Z,975.31
2022-10-21T01:34:25.618Z,975.11
2022-10-21T01:34:57.553Z,975.11
2022-10-21T01:35:29.562Z,975.11
2022-10-21T01:36:00.016Z,975.21
2022-10-21T01:36:29.860Z,975.21
2022-10-21T01:37:00.272Z,975.21
2022-10-21T01:37:31.445Z,975.21
2022-10-21T01:38:02.588Z,975.11
2022-10-21T01:38:34.065Z,975.11
2022-10-21T01:39:04.280Z,975.11
2022-10-21T01:39:35.904Z,975.11
2022-10-21T01:40:09.439Z,975.21
2022-10-21T01:40:39.575Z,975.21
2022-10-21T01:41:10.668Z,975.11
2022-10-21T01:41:40.413Z,975.11
2022-10-21T01:42:10.863Z,975.31
2022-10-21T01:42:41.499Z,975.31
2022-10-21T01:43:12.442Z,975.01
2022-10-21T01:43:43.799Z,975.01
2022-10-21T01:44:14.562Z,975.01
2022-10-21T01:45:17.447Z,975.01
2022-10-21T01:45:49.491Z,975.01
2022-10-21T01:46:20.081Z,975.01
2022-10-21T01:46:50.325Z,975.01
2022-10-21T01:47:21.371Z,975.11
2022-10-21T01:47:51.694Z,975.11
2022-10-21T01:48:23.306Z,975.11
2022-10-21T01:48:53.820Z,975.11
2022-10-21T01:49:24.430Z,975.01
2022-10-21T01:49:57.219Z,975.01
2022-10-21T01:50:28.408Z,975.01
2022-10-21T01:50:59.872Z,975.01
2022-10-21T01:51:30.101Z,975.01
2022-10-21T01:52:00.866Z,975.21
2022-10-21T01:52:31.047Z,975.21
2022-10-21T01:53:01.849Z,975.21
2022-10-21T01:53:32.571Z,975.21
2022-10-21T01:54:03.598Z,975.01
2022-10-21T01:54:34.740Z,975.01
2022-10-21T01:55:05.884Z,975.01
2022-10-21T01:55:36.517Z,975.01
2022-10-21T01:56:12.086Z,975.01
2022-10-21T01:56:40.870Z,975.01
2022-10-21T01:57:13.763Z,975.21
2022-10-21T01:57:40.613Z,975.21
2022-10-21T01:58:11.998Z,975.21
2022-10-21T01:59:13.919Z,975.21
2022-10-21T01:59:44.461Z,975.21
2022-10-21T02:00:16.748Z,975.41
2022-10-21T02:00:46.970Z,975.41
2022-10-21T02:01:49.930Z,975.11
2022-10-21T02:02:20.416Z,975.01
2022-10-21T02:02:50.869Z,975.01
2022-10-21T02:03:22.004Z,975.21
2022-10-21T02:03:53.173Z,975.21
2022-10-21T02:04:23.617Z,975.21
2022-10-21T02:04:55.440Z,975.21
2022-10-21T02:05:25.717Z,975.21
2022-10-21T02:05:56.959Z,975.21
2022-10-21T02:06:29.784Z,975.21
2022-10-21T02:07:00.356Z,975.41
2022-10-21T02:07:31.146Z,975.41
2022-10-21T02:08:01.391Z,975.11
2022-10-21T02:08:32.035Z,975.11
2022-10-21T02:09:02.997Z,975.31
2022-10-21T02:09:33.649Z,975.31
2022-10-21T02:10:05.661Z,975.31
2022-10-21T02:10:35.259Z,975.31
2022-10-21T02:11:06.806Z,975.31
2022-10-21T02:11:39.585Z,975.31
2022-10-21T02:12:11.629Z,975.21
2022-10-21T02:12:41.118Z,975.21
2022-10-21T02:13:12.599Z,975.11
2022-10-21T02:13:41.412Z,975.11
2022-10-21T02:14:12.825Z,975.11
2022-10-21T02:14:43.482Z,975.11
2022-10-21T02:15:15.729Z,975.01
2022-10-21T02:15:45.522Z,975.01
2022-10-21T02:16:16.834Z,975.01
2022-10-21T02:16:48.481Z,975.01
2022-10-21T02:17:20.912Z,974.80
2022-10-21T02:18:21.516Z,974.70
2022-10-21T02:18:52.278Z,974.70
2022-10-21T02:19:22.374Z,974.91
2022-10-21T02:19:53.646Z,974.91
2022-10-21T02:20:25.156Z,974.80
2022-10-21T02:21:31.424Z,974.80
2022-10-21T02:21:43.754Z,974.70
2022-10-21T02:21:58.455Z,974.80
2022-10-21T02:22:30.579Z,974.80
2022-10-21T02:23:00.863Z,974.60
2022-10-21T02:23:31.416Z,974.60
2022-10-21T02:24:02.221Z,974.80
2022-10-21T02:24:32.395Z,974.80
2022-10-21T02:25:04.369Z,974.60
2022-10-21T02:25:34.333Z,974.60
2022-10-21T02:26:05.785Z,974.70
2022-10-21T02:26:36.876Z,974.70
2022-10-21T02:27:09.513Z,974.60
2022-10-21T02:27:40.426Z,974.60
2022-10-21T02:28:27.030Z,974.50
2022-10-21T02:29:11.756Z,974.80
2022-10-21T02:29:43.119Z,974.80
2022-10-21T02:30:14.467Z,974.50
2022-10-21T02:30:44.476Z,974.50
2022-10-21T02:31:16.149Z,974.50
2022-10-21T02:31:46.680Z,974.50
2022-10-21T02:32:19.685Z,974.60
2022-10-21T02:32:50.913Z,974.60
2022-10-21T02:33:21.872Z,974.40
2022-10-21T02:33:51.154Z,974.40
2022-10-21T02:34:21.861Z,974.19
2022-10-21T02:34:52.718Z,974.19
2022-10-21T02:35:24.332Z,974.40
2022-10-21T02:35:55.069Z,974.40
2022-10-21T02:36:26.835Z,974.30
2022-10-21T02:36:56.896Z,974.30
2022-10-21T02:37:27.797Z,974.30
2022-10-21T02:38:01.008Z,974.40
2022-10-21T02:38:30.844Z,974.40
2022-10-21T02:39:01.469Z,974.09
2022-10-21T02:39:31.818Z,974.09
2022-10-21T02:40:03.198Z,974.19
2022-10-21T02:40:33.646Z,974.19
2022-10-21T02:41:04.834Z,974.30
2022-10-21T02:41:35.530Z,974.30
2022-10-21T02:42:06.836Z,974.40
2022-10-21T02:42:38.079Z,974.40
2022-10-21T02:43:11.740Z,974.40
2022-10-21T02:43:41.503Z,974.40
2022-10-21T02:44:12.567Z,974.30
2022-10-21T02:44:41.796Z,974.30
2022-10-21T02:45:13.518Z,974.30
2022-10-21T02:45:43.773Z,974.30
2022-10-21T02:46:15.119Z,974.19
2022-10-21T02:46:45.736Z,974.19
2022-10-21T02:47:47.646Z,974.30
2022-10-21T02:48:21.249Z,974.50
2022-10-21T02:48:51.070Z,974.50
2022-10-21T02:49:22.178Z,974.30
2022-10-21T02:49:51.765Z,974.30
2022-10-21T02:50:23.458Z,974.50
2022-10-21T02:50:53.471Z,974.50
2022-10-21T02:51:24.572Z,974.50
2022-10-21T02:51:55.758Z,974.50
2022-10-21T02:52:26.811Z,974.30
2022-10-21T02:52:57.873Z,974.40
2022-10-21T02:53:31.007Z,974.40
2022-10-21T02:54:01.780Z,974.80
2022-10-21T02:54:31.383Z,974.80
2022-10-21T02:55:02.323Z,974.40
2022-10-21T02:55:33.093Z,974.40
2022-10-21T02:56:22.034Z,974.60
2022-10-21T02:56:34.957Z,974.60
2022-10-21T02:57:07.105Z,974.19
2022-10-21T02:57:37.127Z,974.19
2022-10-21T02:58:09.421Z,974.30
2022-10-21T02:58:41.755Z,974.30
2022-10-21T02:59:13.579Z,974.40
2022-10-21T02:59:40.983Z,974.40
2022-10-21T03:00:19.810Z,974.19
2022-10-21T03:00:43.336Z,974.19
2022-10-21T03:01:13.968Z,974.30
2022-10-21T03:01:44.851Z,974.30
2022-10-21T03:02:16.057Z,974.40
2022-10-21T03:02:47.506Z,974.40
2022-10-21T03:03:17.864Z,974.19
2022-10-21T03:03:50.159Z,974.19
2022-10-21T03:04:52.752Z,974.30
2022-10-21T03:05:22.931Z,974.09
2022-10-21T03:05:53.595Z,974.09
2022-10-21T03:06:23.841Z,974.09
2022-10-21T03:06:56.056Z,974.09
2022-10-21T03:07:26.181Z,974.19
2022-10-21T03:07:57.225Z,974.30
2022-10-21T03:08:28.245Z,974.30
2022-10-21T03:09:00.194Z,974.30
2022-10-21T03:09:31.627Z,974.30
2022-10-21T03:10:02.757Z,974.19
2022-10-21T03:10:32.389Z,974.19
2022-10-21T03:11:03.137Z,974.19
2022-10-21T03:11:33.847Z,974.19
2022-10-21T03:12:05.004Z,974.40
2022-10-21T03:12:36.092Z,974.40
2022-10-21T03:13:06.747Z,974.50
2022-10-21T03:13:37.644Z,974.50
2022-10-21T03:14:08.573Z,974.30
2022-10-21T03:14:42.047Z,974.30
2022-10-21T03:15:13.494Z,974.09
2022-10-21T03:15:42.664Z,974.09
2022-10-21T03:16:13.164Z,974.30
2022-10-21T03:16:44.017Z,974.30
2022-10-21T03:17:15.288Z,974.30
2022-10-21T03:17:45.821Z,974.30
2022-10-21T03:18:16.722Z,974.30
2022-10-21T03:18:47.783Z,974.30
2022-10-21T03:19:20.043Z,974.30
2022-10-21T03:19:52.248Z,974.30
2022-10-21T03:20:23.591Z,974.40
2022-10-21T03:20:52.826Z,974.40
2022-10-21T03:21:22.824Z,974.09
2022-10-21T03:21:54.423Z,974.09
2022-10-21T03:22:28.383Z,974.19
2022-10-21T03:22:55.849Z,974.19
2022-10-21T03:23:32.064Z,974.09
2022-10-21T03:23:58.135Z,973.89
2022-10-21T03:24:29.567Z,973.89
2022-10-21T03:25:02.630Z,974.30
2022-10-21T03:25:35.473Z,974.30
2022-10-21T03:26:02.870Z,974.50
2022-10-21T03:26:32.993Z,974.50
2022-10-21T03:27:03.895Z,974.40
2022-10-21T03:27:52.854Z,974.40
2022-10-21T03:28:05.933Z,974.19
2022-10-21T03:28:36.864Z,974.19
2022-10-21T03:29:07.810Z,974.30
2022-10-21T03:29:38.963Z,974.30
2022-10-21T03:30:12.836Z,974.30
2022-10-21T03:30:42.694Z,974.30
2022-10-21T03:31:13.777Z,974.19
2022-10-21T03:31:43.218Z,974.19
2022-10-21T03:32:14.150Z,974.19
2022-10-21T03:32:44.885Z,974.19
2022-10-21T03:33:16.356Z,974.30
2022-10-21T03:33:46.977Z,974.30
2022-10-21T03:34:18.412Z,974.30
2022-10-21T03:34:48.778Z,974.30
2022-10-21T03:35:22.459Z,974.19
2022-10-21T03:35:52.935Z,974.19
2022-10-21T03:36:23.707Z,974.40
2022-10-21T03:36:53.504Z,974.40
2022-10-21T03:37:23.885Z,974.09
2022-10-21T03:37:54.990Z,974.09
2022-10-21T03:38:26.762Z,974.09
2022-10-21T03:38:57.101Z,974.30
2022-10-21T03:39:28.674Z,974.30
2022-10-21T03:39:59.266Z,974.30
2022-10-21T03:40:31.565Z,974.30
2022-10-21T03:41:02.794Z,974.30
2022-10-21T03:41:33.191Z,974.30
2022-10-21T03:42:03.285Z,974.30
2022-10-21T03:42:33.791Z,974.30
2022-10-21T03:43:04.739Z,974.19
2022-10-21T03:43:36.156Z,974.19
2022-10-21T03:44:07.014Z,974.30
2022-10-21T03:44:37.665Z,974.30
2022-10-21T03:45:11.405Z,973.99
2022-10-21T03:45:41.215Z,973.99
2022-10-21T03:46:12.862Z,974.09
2022-10-21T03:46:43.156Z,974.09
2022-10-21T03:47:14.108Z,974.19
2022-10-21T03:47:44.021Z,974.19
2022-10-21T03:48:15.402Z,974.19
2022-10-21T03:48:45.859Z,974.19
2022-10-21T03:49:20.957Z,974.09
2022-10-21T03:49:48.089Z,974.09
2022-10-21T03:50:23.677Z,974.30
2022-10-21T03:50:51.880Z,974.30
2022-10-21T03:51:23.224Z,974.30
2022-10-21T03:51:52.984Z,974.30
2022-10-21T03:52:23.564Z,974.09
2022-10-21T03:52:53.755Z,974.09
2022-10-21T03:53:42.374Z,974.19
2022-10-21T03:53:56.304Z,974.09
2022-10-21T03:54:27.024Z,974.09
2022-10-21T03:54:58.237Z,974.09
2022-10-21T03:55:29.025Z,974.09
2022-10-21T03:56:01.012Z,973.99
2022-10-21T03:56:32.552Z,973.99
2022-10-21T03:57:03.717Z,974.19
2022-10-21T03:57:33.566Z,974.19
2022-10-21T03:58:08.150Z,974.09
2022-10-21T03:58:35.241Z,974.09
2022-10-21T03:59:06.150Z,973.99
2022-10-21T03:59:36.798Z,973.99
2022-10-21T04:00:27.098Z,973.99
2022-10-21T04:00:39.425Z,973.99
2022-10-21T04:01:10.185Z,973.99
2022-10-21T04:01:41.416Z,973.99
2022-10-21T04:02:12.075Z,974.19
2022-10-21T04:02:43.524Z,974.19
2022-10-21T04:03:31.312Z,974.19
2022-10-21T04:03:45.362Z,974.19
2022-10-21T04:04:16.893Z,973.99
2022-10-21T04:04:49.329Z,973.99
2022-10-21T04:05:19.647Z,974.09
2022-10-21T04:05:50.320Z,974.09
2022-10-21T04:06:20.814Z,973.89
2022-10-21T04:06:51.816Z,973.89
2022-10-21T04:07:22.013Z,973.99
2022-10-21T04:07:53.459Z,973.99
2022-10-21T04:08:41.444Z,973.79
2022-10-21T04:08:55.262Z,973.79
2022-10-21T04:09:26.256Z,974.09
2022-10-21T04:09:59.576Z,974.09
2022-10-21T04:10:28.338Z,974.09
2022-10-21T04:11:02.267Z,974.19
2022-10-21T04:11:30.389Z,974.19
2022-10-21T04:12:01.540Z,974.19
2022-10-21T04:12:31.920Z,974.19
2022-10-21T04:13:04.323Z,973.99
2022-10-21T04:13:34.156Z,973.99
2022-10-21T04:14:05.523Z,974.09
2022-10-21T04:14:36.098Z,974.09
2022-10-21T04:15:11.009Z,973.99
2022-10-21T04:15:40.177Z,973.99
2022-10-21T04:16:09.565Z,973.89
2022-10-21T04:16:40.167Z,973.89
2022-10-21T04:17:12.151Z,973.99
2022-10-21T04:17:42.195Z,973.99
2022-10-21T04:18:13.333Z,973.99
2022-10-21T04:18:44.241Z,973.99
2022-10-21T04:19:15.282Z,973.79
2022-10-21T04:19:47.151Z,973.79
2022-10-21T04:20:18.805Z,973.99
2022-10-21T04:20:50.136Z,973.99
2022-10-21T04:21:20.043Z,974.09
2022-10-21T04:21:50.746Z,974.09
2022-10-21T04:22:21.987Z,973.89
2022-10-21T04:22:52.018Z,973.89
2022-10-21T04:23:23.412Z,973.99
2022-10-21T04:23:54.348Z,973.99
2022-10-21T04:24:25.159Z,973.99
2022-10-21T04:24:57.734Z,973.99
2022-10-21T04:25:27.268Z,973.99
2022-10-21T04:25:59.631Z,973.99
2022-10-21T04:26:31.130Z,973.99
2022-10-21T04:27:01.928Z,973.99
2022-10-21T04:27:32.777Z,973.99
2022-10-21T04:28:02.237Z,974.30
2022-10-21T04:28:34.042Z,974.30
2022-10-21T04:29:04.656Z,973.89
2022-10-21T04:29:35.362Z,973.89
2022-10-21T04:30:07.922Z,974.09
2022-10-21T04:30:37.024Z,974.09
2022-10-21T04:31:11.499Z,974.19
2022-10-21T04:31:41.405Z,974.19
2022-10-21T04:32:11.081Z,973.99
2022-10-21T04:32:42.116Z,973.99
2022-10-21T04:33:15.232Z,974.19
2022-10-21T04:33:44.811Z,974.19
2022-10-21T04:34:14.271Z,974.09
2022-10-21T04:34:45.855Z,974.09
2022-10-21T04:35:16.496Z,974.09
2022-10-21T04:36:20.114Z,974.09
2022-10-21T04:36:51.762Z,974.09
2022-10-21T04:37:21.227Z,974.19
2022-10-21T04:37:52.154Z,974.19
2022-10-21T04:38:22.681Z,973.89
2022-10-21T04:38:53.348Z,973.89
2022-10-21T04:39:24.126Z,974.09
2022-10-21T04:39:55.397Z,974.09
2022-10-21T04:40:26.543Z,974.09
2022-10-21T04:40:57.242Z,974.09
2022-10-21T04:41:30.277Z,974.09
2022-10-21T04:42:00.679Z,973.89
2022-10-21T04:42:29.969Z,973.89
2022-10-21T04:43:01.513Z,973.99
2022-10-21T04:43:32.284Z,973.99
2022-10-21T04:44:03.948Z,973.99
2022-10-21T04:44:34.188Z,973.99
2022-10-21T04:45:07.555Z,973.89
2022-10-21T04:45:52.333Z,973.89
2022-10-21T04:46:11.286Z,973.99
2022-10-21T04:46:39.798Z,973.99
2022-10-21T04:47:10.761Z,974.19
2022-10-21T04:47:40.863Z,974.19
2022-10-21T04:48:30.306Z,973.79
2022-10-21T04:48:42.026Z,973.79
2022-10-21T04:49:13.473Z,973.99
2022-10-21T04:49:44.261Z,973.99
2022-10-21T04:50:16.378Z,973.99
2022-10-21T04:50:46.758Z,973.99
2022-10-21T04:51:18.715Z,973.79
2022-10-21T04:51:50.186Z,973.79
2022-10-21T04:52:20.185Z,974.09
2022-10-21T04:52:50.537Z,974.09
2022-10-21T04:53:21.619Z,973.79
2022-10-21T04:53:52.518Z,973.79
2022-10-21T04:54:23.700Z,973.99
2022-10-21T04:54:54.251Z,973.99
2022-10-21T04:55:25.673Z,973.79
2022-10-21T04:55:56.304Z,973.69
2022-10-21T04:56:27.510Z,973.69
2022-10-21T04:57:00.809Z,973.69
2022-10-21T04:57:46.685Z,973.69
2022-10-21T04:58:03.090Z,973.89
2022-10-21T04:58:31.227Z,973.89
2022-10-21T04:59:02.400Z,973.79
2022-10-21T04:59:33.368Z,973.79
2022-10-21T05:00:09.478Z,973.99
2022-10-21T05:00:38.454Z,973.99
2022-10-21T05:01:06.360Z,973.69
2022-10-21T05:01:38.409Z,973.69
2022-10-21T05:02:09.889Z,973.69
2022-10-21T05:02:51.726Z,973.69
2022-10-21T05:03:14.621Z,973.69
2022-10-21T05:03:45.432Z,973.69
2022-10-21T05:04:12.224Z,973.69
2022-10-21T05:04:43.778Z,973.69
2022-10-21T05:05:58.672Z,973.79
2022-10-21T05:06:33.767Z,973.69
2022-10-21T05:06:49.276Z,973.69
2022-10-21T05:07:20.065Z,973.79
2022-10-21T05:07:50.349Z,973.79
2022-10-21T05:08:21.056Z,973.79
2022-10-21T05:08:51.658Z,973.79
2022-10-21T05:13:00.505Z,973.69
2022-10-21T05:16:40.989Z,973.42
2022-10-21T05:17:27.054Z,973.31
2022-10-21T05:17:49.062Z,973.31
2022-10-21T05:18:41.536Z,973.48
2022-10-21T05:19:50.346Z,973.11
2022-10-21T05:20:13.512Z,973.31
2022-10-21T05:20:44.853Z,973.31
2022-10-21T05:21:15.512Z,973.11
2022-10-21T05:22:04.432Z,973.11
2022-10-21T05:22:18.042Z,973.21
2022-10-21T05:22:49.094Z,973.21
2022-10-21T05:23:21.222Z,973.21
2022-10-21T05:26:41.517Z,973.21
2022-10-21T05:26:56.627Z,973.11
2022-10-21T05:27:27.285Z,973.11
2022-10-21T05:28:00.316Z,973.31
2022-10-21T05:28:33.187Z,973.31
2022-10-21T05:29:02.158Z,973.21
2022-10-21T05:29:32.105Z,973.21
2022-10-21T05:30:03.427Z,973.42
2022-10-21T05:30:34.245Z,973.42
2022-10-21T05:31:04.528Z,973.21
2022-10-21T05:31:36.331Z,973.21
2022-10-21T05:32:06.934Z,973.21
2022-10-21T05:32:37.668Z,973.21
2022-10-21T05:33:10.356Z,972.91
2022-10-21T05:33:41.743Z,972.91
2022-10-21T05:34:12.379Z,973.21
2022-10-21T05:34:41.946Z,973.21
2022-10-21T05:35:12.511Z,973.11
2022-10-21T05:35:43.709Z,973.11
2022-10-21T05:36:14.285Z,973.21
2022-10-21T05:36:46.219Z,973.21
2022-10-21T05:37:16.874Z,973.11
2022-10-21T05:37:47.490Z,973.11
2022-10-21T05:38:18.676Z,973.01
2022-10-21T05:38:51.733Z,973.01
2022-10-21T05:39:22.501Z,973.01
2022-10-21T05:39:52.849Z,973.01
2022-10-21T05:40:23.612Z,973.11
2022-10-21T05:40:53.751Z,973.11
2022-10-21T05:41:25.159Z,973.01
2022-10-21T05:41:55.671Z,973.01
2022-10-21T05:42:26.579Z,973.01
2022-10-21T05:42:57.930Z,973.01
2022-10-21T05:43:29.478Z,973.01
2022-10-21T05:44:02.341Z,973.11
2022-10-21T05:44:32.217Z,973.11
2022-10-21T05:45:03.251Z,973.01
2022-10-21T05:45:33.535Z,973.01
2022-10-21T05:46:03.732Z,973.11
2022-10-21T05:46:34.478Z,973.11
2022-10-21T05:47:05.816Z,973.11
2022-10-21T05:47:36.522Z,973.11
2022-10-21T06:37:44.763Z,973.11
2022-10-21T06:38:15.191Z,973.31
2022-10-21T06:38:45.676Z,973.31
2022-10-21T06:39:16.665Z,973.31
2022-10-21T06:39:51.974Z,973.31
2022-10-21T06:40:19.283Z,973.21
2022-10-21T06:40:49.705Z,973.21
2022-10-21T06:41:20.667Z,973.42
2022-10-21T06:41:51.644Z,973.42
2022-10-21T06:42:24.494Z,973.21
2022-10-21T06:42:54.900Z,973.21
2022-10-21T06:43:24.584Z,973.42
2022-10-21T06:43:58.216Z,973.42
2022-10-21T06:44:27.422Z,973.31
2022-10-21T06:45:00.225Z,973.31
2022-10-21T06:45:28.938Z,973.31
2022-10-21T06:46:00.148Z,973.21
2022-10-21T06:46:30.702Z,973.21
2022-10-21T06:47:01.657Z,973.21
2022-10-21T06:47:34.618Z,973.21
2022-10-21T06:48:41.001Z,973.21
2022-10-21T06:49:05.845Z,973.21
2022-10-21T06:49:36.948Z,973.21
2022-10-21T06:50:07.892Z,973.31
2022-10-21T06:50:39.250Z,973.31
2022-10-21T06:51:09.985Z,973.42
2022-10-21T06:51:40.444Z,973.42
2022-10-21T06:52:11.751Z,973.31
2022-10-21T06:52:43.736Z,973.31
2022-10-21T06:53:14.446Z,973.31
2022-10-21T06:54:02.061Z,973.42
2022-10-21T06:54:16.028Z,973.42
2022-10-21T06:54:46.809Z,973.42
2022-10-21T06:55:17.630Z,973.48
2022-10-21T06:55:48.721Z,973.48
2022-10-21T06:56:19.612Z,973.48
2022-10-21T06:56:50.539Z,973.48
2022-10-21T06:57:53.856Z,973.48
2022-10-21T06:58:24.203Z,973.59
2022-10-21T06:58:54.917Z,973.59
2022-10-21T06:59:25.812Z,973.42
2022-10-21T06:59:56.670Z,973.48
2022-10-21T07:00:37.230Z,973.48
2022-10-21T07:00:58.660Z,973.48
2022-10-21T07:01:35.259Z,973.48
2022-10-21T07:02:01.409Z,973.42
2022-10-21T07:02:31.490Z,973.42
2022-10-21T07:03:04.073Z,973.31
2022-10-21T07:03:34.556Z,973.31
2022-10-21T07:04:05.246Z,973.21
2022-10-21T07:04:35.703Z,973.21
2022-10-21T07:05:06.776Z,973.21
2022-10-21T07:05:37.827Z,973.21
2022-10-21T07:06:09.158Z,973.31
2022-10-21T07:06:44.430Z,973.31
2022-10-21T07:07:10.937Z,973.21
2022-10-21T07:07:41.884Z,973.21
2022-10-21T07:08:13.612Z,973.31
2022-10-21T07:08:47.194Z,973.31
2022-10-21T07:09:15.257Z,973.42
2022-10-21T07:09:45.552Z,973.42
2022-10-21T07:10:17.066Z,973.31
2022-10-21T07:11:18.689Z,973.31
2022-10-21T07:12:07.091Z,973.31
2022-10-21T07:12:21.003Z,973.31
2022-10-21T07:12:51.803Z,973.31
2022-10-21T07:13:26.132Z,973.42
2022-10-21T07:13:54.308Z,973.42
2022-10-21T07:14:24.947Z,973.21
2022-10-21T07:14:55.755Z,973.21
2022-10-21T07:15:26.928Z,973.42
2022-10-21T07:15:57.755Z,973.48
2022-10-21T07:16:28.532Z,973.48
2022-10-21T07:16:59.657Z,973.48
2022-10-21T07:17:30.773Z,973.48
2022-10-21T07:18:01.732Z,973.42
2022-10-21T07:18:33.762Z,973.42
2022-10-21T07:19:05.057Z,973.21
2022-10-21T07:19:35.205Z,973.21
2022-10-21T07:20:07.171Z,973.31
2022-10-21T07:20:36.741Z,973.31
2022-10-21T07:21:07.770Z,973.42
2022-10-21T07:21:38.882Z,973.42
2022-10-21T07:22:09.886Z,973.31
2022-10-21T07:22:40.856Z,973.31
2022-10-21T07:23:11.595Z,973.42
2022-10-21T07:23:44.131Z,973.42
2022-10-21T07:24:17.593Z,973.42
2022-10-21T07:25:15.822Z,973.31
2022-10-21T07:25:47.342Z,973.31
2022-10-21T07:26:17.734Z,973.31
2022-10-21T07:26:48.579Z,973.31
2022-10-21T07:27:20.086Z,973.42
2022-10-21T07:27:50.805Z,973.42
2022-10-21T07:28:21.776Z,973.48
2022-10-21T07:28:53.643Z,973.48
2022-10-21T07:29:24.697Z,973.42
2022-10-21T07:30:13.497Z,973.42
2022-10-21T07:30:44.654Z,973.42
2022-10-21T07:30:56.893Z,973.42
2022-10-21T07:31:27.854Z,973.42
2022-10-21T07:31:58.824Z,973.31
2022-10-21T07:32:29.976Z,973.31
2022-10-21T07:33:00.906Z,973.48
2022-10-21T07:33:31.801Z,973.48
2022-10-21T07:34:34.874Z,973.42
2022-10-21T07:35:05.887Z,973.42
2022-10-21T07:35:35.641Z,973.42
2022-10-21T07:36:06.941Z,973.21
2022-10-21T07:37:08.809Z,973.59
2022-10-21T07:37:40.446Z,973.59
2022-10-21T07:38:10.651Z,973.42
2022-10-21T07:38:59.171Z,973.69
2022-10-21T07:39:13.721Z,973.69
2022-10-21T07:39:44.979Z,973.69